Time;durP1;ratioP1;P1;durP2;ratioP2;P2;SDS_P1;SDS_P2;PMS_P1;PMS_P2;Temp;Humidity;BMP_temperature;BMP_pressure;BME280_temperature;BME280_humidity;BME280_pressure;Samples;Min_cycle;Max_cycle;Signal;HPM_P1;HPM_P2
2023/01/05 00:01:43;;;;;;;6.10;4.90;;;;;;;7.71;93.12;97438.69;105418;1320;22202;-86
2023/01/05 00:04:11;;;;;;;7.70;6.20;;;;;;;7.71;93.48;97428.71;104926;1327;22143;-85
2023/01/05 00:06:40;;;;;;;5.90;5.20;;;;;;;7.72;93.59;97429.02;104900;1327;22163;-85
2023/01/05 00:09:12;;;;;;;6.80;5.10;;;;;;;7.73;93.47;97425.95;104857;1323;22935;-85
2023/01/05 00:22:58;;;;;;;7.20;5.00;;;;;;;7.72;92.97;97419.48;105438;1320;22104;-86
2023/01/05 00:25:29;;;;;;;5.90;5.30;;;;;;;7.74;92.68;97423.15;105425;1320;22169;-86
2023/01/05 00:27:57;;;;;;;5.50;4.80;;;;;;;7.77;93.11;97423.90;104927;1319;22088;-85
2023/01/05 00:30:46;;;;;;;5.30;4.60;;;;;;;7.82;92.63;97423.08;104893;1326;22243;-86
2023/01/05 00:33:16;;;;;;;5.80;5.20;;;;;;;7.83;92.16;97410.46;104951;1323;22171;-86
2023/01/05 00:35:44;;;;;;;5.60;4.40;;;;;;;7.88;91.93;97409.58;104951;1323;22239;-87
2023/01/05 00:38:12;;;;;;;7.30;4.50;;;;;;;7.92;91.99;97415.36;104711;1316;22957;-84
2023/01/05 00:40:40;;;;;;;6.80;4.50;;;;;;;7.92;91.62;97413.26;104676;1330;22353;-83
2023/01/05 00:43:08;;;;;;;5.00;4.00;;;;;;;7.96;90.81;97407.02;104697;1330;22253;-85
2023/01/05 00:45:36;;;;;;;5.10;4.00;;;;;;;7.97;91.21;97413.83;104684;1330;22278;-84
2023/01/05 00:48:04;;;;;;;5.70;5.20;;;;;;;8.01;90.74;97410.98;104716;1330;22434;-87
2023/01/05 00:50:32;;;;;;;5.40;4.50;;;;;;;8.04;90.26;97406.95;104563;1330;23039;-86
2023/01/05 00:53:01;;;;;;;4.70;4.20;;;;;;;8.00;90.58;97396.77;104589;1318;22145;-86
2023/01/05 00:55:29;;;;;;;5.10;4.50;;;;;;;8.01;90.81;97403.15;104870;1323;22186;-86
2023/01/05 00:57:57;;;;;;;4.60;4.10;;;;;;;8.04;90.69;97398.63;104918;1315;22259;-84
2023/01/05 01:00:25;;;;;;;5.30;4.40;;;;;;;8.03;90.45;97385.73;104529;1325;22280;-85
2023/01/05 01:02:53;;;;;;;4.90;4.30;;;;;;;8.03;90.24;97393.99;104532;1330;22270;-88
2023/01/05 01:05:22;;;;;;;6.20;4.40;;;;;;;8.01;90.40;97378.66;104489;1330;22811;-88
2023/01/05 01:07:52;;;;;;;4.90;4.40;;;;;;;8.03;90.67;97376.23;104677;1320;22316;-86
2023/01/05 01:10:20;;;;;;;6.40;4.30;;;;;;;7.99;90.41;97382.60;105012;1320;22307;-87
2023/01/05 01:12:48;;;;;;;5.00;4.30;;;;;;;7.99;90.45;97384.23;104966;1327;22209;-86
2023/01/05 01:15:15;;;;;;;4.70;4.10;;;;;;;7.99;90.64;97386.55;104966;1326;22214;-85
2023/01/05 01:17:44;;;;;;;4.80;3.60;;;;;;;8.00;90.84;97381.27;105330;1319;23051;-85
2023/01/05 01:20:13;;;;;;;4.30;3.90;;;;;;;8.04;90.49;97371.16;104917;1327;22202;-85
2023/01/05 01:22:41;;;;;;;4.80;3.90;;;;;;;8.06;90.40;97368.82;104905;1327;22273;-86
2023/01/05 01:25:08;;;;;;;5.40;4.90;;;;;;;8.04;90.27;97360.48;105165;1320;22220;-86
2023/01/05 01:27:36;;;;;;;4.50;3.90;;;;;;;8.05;90.57;97350.81;104964;1318;22244;-85
2023/01/05 01:30:05;;;;;;;5.40;4.30;;;;;;;8.06;90.75;97346.49;104935;1326;22078;-85
2023/01/05 01:32:33;;;;;;;4.70;4.00;;;;;;;8.01;90.84;97356.23;104905;1327;22188;-84
2023/01/05 01:35:01;;;;;;;4.30;3.80;;;;;;;7.96;91.00;97348.55;104966;1327;22070;-84
2023/01/05 01:37:29;;;;;;;6.20;3.90;;;;;;;7.96;91.97;97342.01;105275;1320;22161;-86
2023/01/05 01:39:58;;;;;;;4.20;3.80;;;;;;;7.94;92.00;97334.02;105268;1312;22195;-85
2023/01/05 01:42:26;;;;;;;4.90;3.90;;;;;;;7.91;91.90;97332.52;104853;1327;22149;-85
2023/01/05 01:44:57;;;;;;;4.30;3.90;;;;;;;7.93;91.86;97329.34;104905;1326;22221;-84
2023/01/05 01:47:56;;;;;;;3.90;3.50;;;;;;;7.99;92.05;97314.84;104768;1327;22077;-84
2023/01/05 01:50:35;;;;;;;4.10;3.70;;;;;;;8.02;91.94;97308.85;104940;1320;22200;-83
2023/01/05 01:53:33;;;;;;;4.50;3.60;;;;;;;8.06;91.26;97309.73;104978;1326;22810;-84
2023/01/05 01:56:04;;;;;;;4.20;3.80;;;;;;;8.11;91.09;97310.77;104937;1326;22192;-84
2023/01/05 01:58:32;;;;;;;4.10;3.70;;;;;;;8.18;91.13;97310.48;104917;1327;22077;-85
2023/01/05 02:01:01;;;;;;;3.80;3.20;;;;;;;8.17;91.03;97305.59;104932;1326;22190;-85
2023/01/05 02:03:31;;;;;;;5.10;3.50;;;;;;;8.16;90.74;97282.87;105305;1320;22205;-85
2023/01/05 02:05:59;;;;;;;3.70;3.30;;;;;;;8.16;91.30;97285.92;105298;1320;22184;-87
2023/01/05 02:08:30;;;;;;;3.60;3.20;;;;;;;8.21;91.47;97280.14;104925;1326;22207;-87
2023/01/05 02:11:27;;;;;;;3.90;3.50;;;;;;;8.24;91.12;97266.73;105319;1309;22220;-85
2023/01/05 02:14:08;;;;;;;3.80;3.50;;;;;;;8.24;90.80;97271.98;105441;1319;22174;-87
2023/01/05 02:16:38;;;;;;;3.20;2.90;;;;;;;8.27;91.06;97266.18;105455;1319;22135;-87
2023/01/05 02:19:18;;;;;;;3.90;3.40;;;;;;;8.26;91.32;97263.73;105414;1319;22197;-87
2023/01/05 02:22:18;;;;;;;4.10;3.50;;;;;;;8.25;91.67;97261.66;105417;1305;22198;-87
2023/01/05 02:25:23;;;;;;;4.00;3.60;;;;;;;8.26;91.65;97260.08;104841;1327;22191;-87
2023/01/05 02:28:04;;;;;;;4.20;3.80;;;;;;;8.33;91.32;97248.27;104867;1327;22217;-85
2023/01/05 02:30:44;;;;;;;4.30;3.80;;;;;;;8.42;91.04;97261.23;105418;1319;22109;-87
2023/01/05 02:33:37;;;;;;;4.20;3.60;;;;;;;8.54;90.32;97248.15;104920;1326;22136;-87
2023/01/05 02:36:19;;;;;;;4.50;3.80;;;;;;;8.54;89.84;97250.46;104864;1326;22206;-87
2023/01/05 02:39:10;;;;;;;3.50;3.20;;;;;;;8.59;90.18;97250.46;104829;1327;22240;-87
2023/01/05 02:41:59;;;;;;;4.80;3.50;;;;;;;8.62;89.97;97245.08;104876;1322;22192;-87
2023/01/05 02:44:30;;;;;;;4.50;3.20;;;;;;;8.61;89.35;97246.77;104910;1321;22151;-86
2023/01/05 02:47:05;;;;;;;3.70;3.30;;;;;;;8.64;89.39;97250.73;104708;1326;22225;-86
2023/01/05 02:49:39;;;;;;;3.00;2.70;;;;;;;8.69;89.66;97230.28;104765;1327;22104;-85
2023/01/05 02:52:10;;;;;;;3.20;2.90;;;;;;;8.71;89.83;97234.54;105152;1314;22196;-86
2023/01/05 02:54:49;;;;;;;3.70;3.20;;;;;;;8.73;89.39;97228.80;105297;1309;23022;-86
2023/01/05 02:57:45;;;;;;;4.40;3.70;;;;;;;8.73;88.95;97230.41;104871;1327;22237;-87
2023/01/05 03:00:49;;;;;;;5.70;3.00;;;;;;;8.80;88.87;97221.69;104874;1327;22209;-87
2023/01/05 03:03:37;;;;;;;7.70;3.30;;;;;;;8.79;88.59;97220.75;104906;1327;22275;-86
2023/01/05 03:06:16;;;;;;;3.30;3.00;;;;;;;8.76;88.58;97216.25;104834;1327;22892;-86
2023/01/05 03:08:51;;;;;;;3.90;3.30;;;;;;;8.76;88.89;97215.88;104822;1327;22153;-85
2023/01/05 03:14:22;;;;;;;3.30;3.00;;;;;;;8.76;89.04;97217.02;105285;1315;22856;-86
2023/01/05 03:16:54;;;;;;;4.00;3.40;;;;;;;8.70;88.74;97199.85;104917;1327;22067;-85
2023/01/05 03:19:38;;;;;;;3.50;3.20;;;;;;;8.67;89.42;97197.45;105252;1312;22908;-85
2023/01/05 03:37:09;;;;;;;5.10;4.50;;;;;;;8.43;91.15;97190.93;104967;1327;22279;-85
2023/01/05 03:39:41;;;;;;;4.00;3.40;;;;;;;8.46;90.62;97188.55;104914;1328;22111;-83
2023/01/05 03:42:11;;;;;;;4.80;4.30;;;;;;;8.45;90.66;97187.57;105091;1320;22127;-84
2023/01/05 03:44:43;;;;;;;4.20;3.80;;;;;;;8.46;91.07;97188.84;104951;1326;22165;-84
2023/01/05 03:47:13;;;;;;;5.40;4.20;;;;;;;8.47;90.82;97182.85;104905;1327;22309;-84
2023/01/05 03:49:42;;;;;;;3.60;3.20;;;;;;;8.42;91.14;97178.29;104764;1326;23052;-85
2023/01/05 03:52:10;;;;;;;5.00;3.50;;;;;;;8.38;90.84;97178.45;104946;1327;22208;-84
2023/01/05 03:54:40;;;;;;;3.40;3.10;;;;;;;8.41;91.49;97181.95;104843;1326;22889;-83
2023/01/05 03:57:08;;;;;;;4.10;2.90;;;;;;;8.44;91.21;97179.00;105170;1319;22283;-84
2023/01/05 03:59:38;;;;;;;4.60;2.90;;;;;;;8.43;91.02;97171.38;104942;1327;22181;-84
2023/01/05 04:02:06;;;;;;;3.00;2.60;;;;;;;8.40;91.25;97167.70;105269;1320;22156;-84
2023/01/05 04:04:35;;;;;;;3.80;3.20;;;;;;;8.36;91.47;97159.70;105408;1312;22243;-84
2023/01/05 04:07:06;;;;;;;3.50;3.00;;;;;;;8.35;91.63;97155.43;104922;1327;22085;-84
2023/01/05 04:09:35;;;;;;;3.40;3.10;;;;;;;8.33;91.69;97157.02;105313;1319;22167;-84
2023/01/05 04:12:04;;;;;;;4.50;3.60;;;;;;;8.32;91.36;97167.40;104884;1327;22274;-84
2023/01/05 04:14:34;;;;;;;4.10;3.20;;;;;;;8.36;91.94;97151.06;105083;1305;22198;-84
2023/01/05 04:17:02;;;;;;;3.40;3.00;;;;;;;8.38;91.69;97145.96;105266;1319;22146;-84
2023/01/05 04:19:31;;;;;;;4.30;3.40;;;;;;;8.38;91.98;97163.11;104854;1327;22440;-85
2023/01/05 04:22:00;;;;;;;4.30;3.50;;;;;;;8.34;91.75;97157.50;104863;1327;23368;-87
2023/01/05 04:24:29;;;;;;;3.60;3.30;;;;;;;8.30;92.41;97153.72;105111;1306;22170;-86
2023/01/05 04:26:59;;;;;;;4.50;3.60;;;;;;;8.31;92.57;97150.69;104845;1327;22206;-87
2023/01/05 04:29:27;;;;;;;4.20;3.60;;;;;;;8.30;93.08;97153.39;104788;1327;22197;-87
2023/01/05 04:31:55;;;;;;;7.30;4.70;;;;;;;8.27;92.80;97152.23;104870;1327;22278;-85
2023/01/05 04:34:23;;;;;;;5.60;4.10;;;;;;;8.22;92.99;97157.75;104858;1328;22208;-85
2023/01/05 04:36:53;;;;;;;4.70;3.90;;;;;;;8.20;93.98;97160.36;105251;1316;23289;-85
2023/01/05 04:39:21;;;;;;;4.70;3.50;;;;;;;8.12;94.23;97152.75;105273;1311;22194;-85
2023/01/05 04:41:50;;;;;;;5.10;4.00;;;;;;;8.09;94.78;97149.17;104927;1327;22230;-85
2023/01/05 04:44:19;;;;;;;6.60;2.90;;;;;;;8.08;95.06;97157.06;104913;1318;22171;-85
2023/01/05 04:46:48;;;;;;;5.00;4.00;;;;;;;8.08;95.10;97155.90;104933;1327;22074;-86
2023/01/05 04:49:16;;;;;;;4.90;4.10;;;;;;;8.05;95.20;97159.65;105278;1318;22881;-86
2023/01/05 04:51:47;;;;;;;3.40;3.00;;;;;;;8.05;95.37;97166.23;105170;1320;22177;-87
2023/01/05 04:54:16;;;;;;;4.70;3.40;;;;;;;8.03;95.61;97159.85;104912;1320;22763;-87
2023/01/05 04:56:44;;;;;;;4.70;3.60;;;;;;;8.07;95.70;97162.46;104846;1314;22193;-86
2023/01/05 04:59:13;;;;;;;6.40;3.30;;;;;;;8.07;95.93;97158.60;104883;1327;22221;-86
2023/01/05 05:01:43;;;;;;;4.00;3.30;;;;;;;8.06;96.04;97155.03;104948;1327;22787;-83
2023/01/05 05:04:12;;;;;;;4.90;3.90;;;;;;;8.08;95.94;97143.27;104868;1327;22853;-84
2023/01/05 05:06:40;;;;;;;3.60;3.00;;;;;;;8.05;96.40;97143.40;105370;1315;22229;-83
2023/01/05 05:09:08;;;;;;;4.70;3.10;;;;;;;7.98;96.85;97146.55;104909;1327;22496;-85
2023/01/05 05:11:38;;;;;;;4.40;3.50;;;;;;;7.94;96.89;97142.40;104904;1327;22937;-85
2023/01/05 05:14:08;;;;;;;5.90;3.90;;;;;;;7.87;97.39;97139.37;104927;1327;22243;-85
2023/01/05 05:16:36;;;;;;;3.30;3.00;;;;;;;7.87;98.05;97139.27;104860;1327;23004;-85
2023/01/05 05:19:05;;;;;;;3.90;2.70;;;;;;;7.84;98.36;97143.30;105165;1322;22213;-85
2023/01/05 05:21:33;;;;;;;6.70;4.10;;;;;;;7.81;98.66;97148.51;105278;1320;22849;-86
2023/01/05 05:24:01;;;;;;;24.50;12.20;;;;;;;7.81;98.36;97147.75;105022;1327;22241;-85
2023/01/05 05:26:29;;;;;;;29.90;11.20;;;;;;;7.83;98.96;97138.17;104895;1327;22229;-86
2023/01/05 05:28:58;;;;;;;17.90;7.30;;;;;;;7.81;98.78;97144.70;104909;1320;22198;-86
2023/01/05 05:31:27;;;;;;;25.90;10.60;;;;;;;7.83;98.78;97136.08;104907;1327;22308;-86
2023/01/05 05:33:55;;;;;;;9.30;5.20;;;;;;;7.84;99.26;97127.59;105082;1320;22236;-85
2023/01/05 05:36:23;;;;;;;8.50;5.70;;;;;;;7.82;99.93;97133.95;104899;1327;22104;-86
2023/01/05 05:38:51;;;;;;;4.70;4.00;;;;;;;7.83;100.00;97128.52;105299;1319;22960;-84
2023/01/05 05:41:19;;;;;;;6.00;4.80;;;;;;;7.82;99.92;97133.52;104899;1327;22248;-85
2023/01/05 05:43:47;;;;;;;5.60;3.80;;;;;;;7.80;100.00;97130.89;104914;1327;22101;-84
2023/01/05 05:46:15;;;;;;;5.60;4.50;;;;;;;7.75;100.00;97128.89;104834;1327;22201;-85
2023/01/05 05:48:43;;;;;;;4.90;4.10;;;;;;;7.74;100.00;97124.88;104894;1327;22199;-84
2023/01/05 05:51:11;;;;;;;6.30;3.80;;;;;;;7.71;100.00;97123.98;104917;1325;22368;-85
2023/01/05 05:53:39;;;;;;;6.60;4.00;;;;;;;7.70;100.00;97128.70;105343;1311;22194;-84
2023/01/05 05:56:07;;;;;;;5.60;3.60;;;;;;;7.70;100.00;97130.31;104884;1327;22654;-85
2023/01/05 05:58:35;;;;;;;5.00;4.30;;;;;;;7.71;100.00;97120.02;104823;1330;22073;-85
2023/01/05 06:01:03;;;;;;;5.60;4.50;;;;;;;7.69;100.00;97113.33;105296;1320;22172;-84
2023/01/05 06:03:31;;;;;;;6.70;4.90;;;;;;;7.72;100.00;97124.70;104899;1328;22232;-86
2023/01/05 06:06:01;;;;;;;6.70;4.90;;;;;;;7.71;100.00;97128.80;104831;1331;22179;-86
2023/01/05 06:08:29;;;;;;;6.10;4.40;;;;;;;7.70;100.00;97126.02;105283;1309;22175;-85
2023/01/05 06:10:58;;;;;;;5.30;4.00;;;;;;;7.68;100.00;97130.48;104908;1327;22868;-85
2023/01/05 06:13:26;;;;;;;5.80;3.90;;;;;;;7.67;100.00;97131.23;105285;1320;22269;-84
2023/01/05 06:15:54;;;;;;;9.00;5.60;;;;;;;7.71;100.00;97141.08;104926;1333;22647;-85
2023/01/05 06:18:22;;;;;;;7.10;4.40;;;;;;;7.70;100.00;97142.02;105240;1310;22071;-85
2023/01/05 06:20:50;;;;;;;4.80;3.60;;;;;;;7.67;100.00;97135.36;104914;1328;22430;-84
2023/01/05 06:23:24;;;;;;;;;;;;;;;7.69;100.00;97135.27;104893;1326;22453;-85
2023/01/05 06:25:52;;;;;;;9.60;6.00;;;;;;;7.69;100.00;97123.96;104950;1332;22238;-84
2023/01/05 06:28:20;;;;;;;6.00;3.90;;;;;;;7.71;100.00;97132.83;104938;1326;22201;-82
2023/01/05 06:30:48;;;;;;;5.80;4.30;;;;;;;7.73;100.00;97130.15;104948;1326;22239;-85
2023/01/05 06:33:16;;;;;;;6.50;4.70;;;;;;;7.73;100.00;97129.09;104957;1332;22202;-87
2023/01/05 06:35:44;;;;;;;6.10;4.00;;;;;;;7.73;100.00;97138.80;104958;1326;22889;-83
2023/01/05 06:38:14;;;;;;;6.10;4.60;;;;;;;7.72;100.00;97130.71;104916;1326;22145;-85
2023/01/05 06:40:45;;;;;;;4.00;3.20;;;;;;;7.74;100.00;97118.50;105416;1319;22154;-82
2023/01/05 06:43:13;;;;;;;6.30;3.70;;;;;;;7.75;100.00;97118.45;104916;1324;22217;-83
2023/01/05 06:45:41;;;;;;;7.10;5.70;;;;;;;7.75;100.00;97117.98;105432;1319;22267;-83
2023/01/05 06:48:09;;;;;;;9.10;7.40;;;;;;;7.77;100.00;97114.92;105403;1323;22225;-82
2023/01/05 06:50:37;;;;;;;7.80;5.10;;;;;;;7.76;100.00;97120.93;104905;1326;22132;-81
2023/01/05 06:53:05;;;;;;;7.70;5.50;;;;;;;7.76;100.00;97128.39;104964;1326;22315;-82
2023/01/05 06:55:33;;;;;;;10.40;7.10;;;;;;;7.78;100.00;97139.30;105421;1301;22100;-86
2023/01/05 06:58:01;;;;;;;15.20;13.80;;;;;;;7.74;100.00;97149.77;105468;1320;22124;-86
2023/01/05 07:00:29;;;;;;;8.30;6.70;;;;;;;7.69;100.00;97163.76;104948;1326;22201;-83
2023/01/05 07:02:57;;;;;;;6.10;3.70;;;;;;;7.68;100.00;97179.52;104897;1325;23027;-83
2023/01/05 07:05:25;;;;;;;6.30;4.10;;;;;;;7.57;99.98;97200.88;104865;1326;22186;-87
2023/01/05 07:07:53;;;;;;;5.70;4.00;;;;;;;7.42;100.00;97183.70;104834;1329;22122;-86
2023/01/05 07:10:21;;;;;;;6.60;4.00;;;;;;;7.38;100.00;97202.61;104815;1333;22223;-85
2023/01/05 07:12:50;;;;;;;5.40;4.20;;;;;;;7.31;100.00;97207.97;104916;1330;22251;-86
2023/01/05 07:15:17;;;;;;;9.50;5.10;;;;;;;7.24;100.00;97232.52;104826;1330;22429;-85
2023/01/05 07:17:46;;;;;;;6.40;4.90;;;;;;;7.17;100.00;97216.09;104947;1326;22109;-84
2023/01/05 07:20:14;;;;;;;5.60;4.80;;;;;;;7.13;100.00;97223.00;104895;1327;22222;-86
2023/01/05 07:22:42;;;;;;;5.90;4.80;;;;;;;7.12;100.00;97231.65;104909;1319;22228;-87
2023/01/05 07:25:10;;;;;;;6.10;5.00;;;;;;;7.10;100.00;97237.03;104895;1327;22797;-86
2023/01/05 07:27:38;;;;;;;7.50;4.30;;;;;;;7.08;100.00;97239.54;104861;1331;22104;-86
2023/01/05 07:30:10;;;;;;;6.70;5.10;;;;;;;7.07;100.00;97235.21;104900;1331;22218;-85
2023/01/05 07:32:38;;;;;;;9.50;8.50;;;;;;;7.09;100.00;97223.13;104908;1329;22081;-85
2023/01/05 07:35:07;;;;;;;6.90;6.20;;;;;;;7.10;100.00;97227.66;104858;1326;22260;-85
2023/01/05 07:37:35;;;;;;;7.50;5.50;;;;;;;7.11;100.00;97230.12;104703;1326;164468;-85
2023/01/05 07:40:03;;;;;;;8.60;5.90;;;;;;;7.09;100.00;97225.80;104911;1328;22881;-85
2023/01/05 07:42:32;;;;;;;12.40;10.90;;;;;;;7.07;100.00;97226.37;104961;1326;22104;-85
2023/01/05 07:45:00;;;;;;;11.90;7.70;;;;;;;7.07;100.00;97214.58;104878;1330;22985;-85
2023/01/05 07:47:28;;;;;;;6.60;4.70;;;;;;;7.06;100.00;97217.81;105304;1308;22680;-86
2023/01/05 07:49:56;;;;;;;7.30;4.50;;;;;;;7.03;100.00;97223.10;104966;1325;22104;-86
2023/01/05 07:52:27;;;;;;;8.80;5.00;;;;;;;6.99;100.00;97226.44;104947;1326;22977;-86
2023/01/05 07:54:54;;;;;;;6.80;5.50;;;;;;;6.99;100.00;97231.96;104872;1306;22888;-85
2023/01/05 07:57:22;;;;;;;6.50;5.40;;;;;;;6.99;100.00;97237.79;104911;1327;22146;-85
2023/01/05 07:59:50;;;;;;;6.50;4.70;;;;;;;6.97;100.00;97238.03;104881;1330;22220;-86
2023/01/05 08:02:19;;;;;;;5.80;4.50;;;;;;;6.95;100.00;97242.73;104854;1328;22129;-86
2023/01/05 08:04:47;;;;;;;6.90;4.70;;;;;;;6.90;100.00;97235.20;104882;1326;22672;-86
2023/01/05 08:07:15;;;;;;;6.80;5.00;;;;;;;6.84;100.00;97237.33;104937;1325;22199;-85
2023/01/05 08:12:30;;;;;;;9.80;6.30;;;;;;;6.78;100.00;97250.20;104947;1319;22093;-86
2023/01/05 08:14:58;;;;;;;14.70;10.80;;;;;;;6.77;100.00;97252.36;104930;1327;22272;-86
2023/01/05 08:17:26;;;;;;;8.00;6.10;;;;;;;6.75;100.00;97256.52;105287;1313;22191;-84
2023/01/05 08:19:53;;;;;;;14.10;9.50;;;;;;;6.75;100.00;97255.08;104955;1326;23316;-85
2023/01/05 08:22:21;;;;;;;7.90;5.30;;;;;;;6.75;100.00;97255.33;104955;1318;22642;-85
2023/01/05 08:24:51;;;;;;;10.10;9.10;;;;;;;6.73;100.00;97258.31;104770;1327;22189;-86
2023/01/05 08:27:19;;;;;;;10.90;8.60;;;;;;;6.69;100.00;97259.48;105182;1311;22802;-85
2023/01/05 08:29:47;;;;;;;11.80;7.90;;;;;;;6.69;100.00;97258.05;104914;1327;22163;-85
2023/01/05 08:32:15;;;;;;;9.10;5.40;;;;;;;6.70;100.00;97265.48;104787;1327;22196;-86
2023/01/05 08:34:43;;;;;;;11.20;6.90;;;;;;;6.68;100.00;97263.90;104909;1327;22737;-86
2023/01/05 08:37:13;;;;;;;12.30;9.80;;;;;;;6.66;100.00;97269.96;104836;1326;22252;-86
2023/01/05 08:39:41;;;;;;;13.10;10.40;;;;;;;6.65;100.00;97265.60;104931;1327;22227;-86
2023/01/05 08:42:09;;;;;;;11.90;9.60;;;;;;;6.65;100.00;97266.30;104874;1327;22076;-84
2023/01/05 08:44:37;;;;;;;15.70;10.70;;;;;;;6.63;100.00;97268.25;104884;1327;22266;-84
2023/01/05 08:47:05;;;;;;;10.00;5.40;;;;;;;6.64;100.00;97267.31;105149;1313;22168;-86
2023/01/05 08:49:33;;;;;;;8.40;6.30;;;;;;;6.65;100.00;97265.33;104933;1325;22095;-84
2023/01/05 08:52:01;;;;;;;7.80;6.70;;;;;;;6.65;100.00;97262.70;104881;1326;22218;-84
2023/01/05 08:54:29;;;;;;;8.30;6.00;;;;;;;6.66;100.00;97261.15;104900;1327;22963;-84
2023/01/05 08:56:57;;;;;;;9.00;6.90;;;;;;;6.68;100.00;97265.73;104812;1330;22278;-84
2023/01/05 08:59:25;;;;;;;10.40;7.80;;;;;;;6.66;100.00;97266.83;104938;1327;22216;-85
2023/01/05 09:01:53;;;;;;;9.70;8.40;;;;;;;6.68;100.00;97257.52;105060;1327;22086;-85
2023/01/05 09:04:21;;;;;;;10.50;7.70;;;;;;;6.73;100.00;97256.77;105151;1327;22208;-85
2023/01/05 09:06:49;;;;;;;13.00;10.90;;;;;;;6.77;100.00;97268.86;105023;1327;22288;-86
2023/01/05 09:09:17;;;;;;;10.60;8.90;;;;;;;6.76;100.00;97268.17;105088;1327;22168;-85
2023/01/05 09:11:45;;;;;;;8.40;6.20;;;;;;;6.79;100.00;97270.71;105188;1321;22146;-85
2023/01/05 09:14:14;;;;;;;11.60;8.00;;;;;;;6.82;100.00;97271.52;105268;1326;22214;-86
2023/01/05 09:16:42;;;;;;;10.50;7.60;;;;;;;6.88;100.00;97266.73;105062;1328;22175;-86
2023/01/05 09:19:30;;;;;;;10.90;9.80;;;;;;;6.94;100.00;97267.70;104993;1327;22123;-85
2023/01/05 09:21:58;;;;;;;11.30;8.90;;;;;;;6.97;100.00;97264.88;104792;1327;22891;-85
2023/01/05 09:24:26;;;;;;;11.20;7.60;;;;;;;6.96;100.00;97270.25;104898;1327;22219;-86
2023/01/05 09:26:55;;;;;;;10.60;8.30;;;;;;;7.00;100.00;97263.55;104808;1327;22224;-86
2023/01/05 09:29:23;;;;;;;10.70;8.00;;;;;;;7.01;100.00;97266.42;104884;1327;22167;-86
2023/01/05 09:31:51;;;;;;;9.90;7.90;;;;;;;7.04;100.00;97264.88;104854;1327;22229;-87
2023/01/05 09:34:19;;;;;;;14.30;12.60;;;;;;;7.10;100.00;97262.00;104753;1326;22222;-87
2023/01/05 09:36:47;;;;;;;12.50;9.30;;;;;;;7.09;100.00;97262.17;104774;1327;22213;-86
2023/01/05 09:39:15;;;;;;;10.00;7.20;;;;;;;7.11;100.00;97264.29;104894;1327;22334;-86
2023/01/05 09:41:51;;;;;;;9.50;7.20;;;;;;;7.13;100.00;97258.27;104772;1327;22245;-86
2023/01/05 09:44:35;;;;;;;13.40;8.80;;;;;;;7.11;100.00;97254.97;104706;1326;22150;-86
2023/01/05 09:47:10;;;;;;;11.40;8.70;;;;;;;7.11;100.00;97254.60;104909;1327;22291;-86
2023/01/05 09:49:40;;;;;;;12.20;9.60;;;;;;;7.16;100.00;97250.71;104852;1327;22190;-85
2023/01/05 09:52:09;;;;;;;9.00;5.50;;;;;;;7.17;100.00;97250.96;105320;1320;22160;-85
2023/01/05 09:54:39;;;;;;;9.60;6.00;;;;;;;7.19;100.00;97250.89;104887;1327;22167;-86
2023/01/05 09:57:16;;;;;;;12.20;9.00;;;;;;;7.25;100.00;97250.20;104764;1327;22108;-86
2023/01/05 09:59:50;;;;;;;12.80;9.80;;;;;;;7.31;100.00;97247.21;104744;1327;22203;-85
2023/01/05 10:02:22;;;;;;;;;;;;;;;7.37;99.99;97246.83;104863;1327;22332;-85
2023/01/05 10:04:52;;;;;;;11.30;9.10;;;;;;;7.38;100.00;97245.66;104888;1327;22077;-86
2023/01/05 10:07:53;;;;;;;9.10;8.00;;;;;;;7.40;99.95;97248.92;104873;1327;22173;-84
2023/01/05 10:13:01;;;;;;;11.10;8.50;;;;;;;7.50;99.43;97247.64;104848;1327;22874;-85
2023/01/05 10:13:42;;;;;;;8.90;6.70;;;;;;;7.59;98.77;97245.40;105058;1320;22337;-84
2023/01/05 10:16:16;;;;;;;9.70;7.20;;;;;;;7.63;97.78;97239.32;104740;1327;22209;-85
2023/01/05 10:18:44;;;;;;;8.90;7.10;;;;;;;7.67;97.37;97244.29;105219;1315;22598;-84
2023/01/05 10:21:25;;;;;;;7.80;6.10;;;;;;;7.73;97.51;97239.56;104766;1325;22099;-83
2023/01/05 10:24:08;;;;;;;8.40;7.30;;;;;;;7.81;97.31;97231.39;105521;1312;22733;-83
2023/01/05 10:27:17;;;;;;;10.60;7.90;;;;;;;7.82;96.75;97230.56;104893;1303;22143;-83
2023/01/05 10:30:08;;;;;;;7.60;6.20;;;;;;;7.82;96.29;97227.94;104898;1312;22235;-83
2023/01/05 10:33:02;;;;;;;7.20;5.70;;;;;;;7.86;96.31;97235.00;104755;1298;22195;-83
2023/01/05 10:36:03;;;;;;;7.60;6.00;;;;;;;7.90;94.94;97231.58;104931;1311;22907;-84
2023/01/05 10:38:38;;;;;;;8.40;5.50;;;;;;;7.90;94.41;97239.74;105214;1313;22297;-84
2023/01/05 10:41:13;;;;;;;10.10;7.00;;;;;;;7.92;94.32;97224.03;105427;1312;22443;-82
2023/01/05 10:43:44;;;;;;;11.50;6.80;;;;;;;7.96;94.21;97223.16;105448;1320;22307;-85
2023/01/05 10:46:14;;;;;;;9.00;6.80;;;;;;;7.96;93.73;97218.41;104849;1327;22430;-84
2023/01/05 10:49:05;;;;;;;7.90;5.50;;;;;;;7.96;94.36;97218.16;105383;1312;22771;-84
2023/01/05 10:51:35;;;;;;;8.20;5.80;;;;;;;7.98;94.42;97209.71;104901;1326;22207;-85
2023/01/05 10:54:04;;;;;;;10.00;6.20;;;;;;;8.00;94.35;97215.08;104828;1327;22202;-85
2023/01/05 10:56:32;;;;;;;9.00;6.30;;;;;;;8.03;94.03;97219.59;104910;1327;22183;-84
2023/01/05 10:59:09;;;;;;;7.90;6.60;;;;;;;8.05;93.90;97217.13;104940;1326;22301;-83
2023/01/05 11:01:43;;;;;;;13.40;6.60;;;;;;;8.10;93.31;97221.80;104949;1327;22170;-84
2023/01/05 11:04:18;;;;;;;9.10;7.00;;;;;;;8.16;92.79;97209.98;104918;1327;22259;-84
2023/01/05 11:07:05;;;;;;;9.00;6.70;;;;;;;8.22;92.33;97212.00;104905;1321;22805;-82
2023/01/05 11:09:38;;;;;;;9.80;6.80;;;;;;;8.26;91.88;97210.91;104894;1327;23406;-83
2023/01/05 11:12:18;;;;;;;9.60;6.40;;;;;;;8.29;90.90;97211.98;104908;1327;22218;-82
2023/01/05 11:14:51;;;;;;;7.10;6.00;;;;;;;8.34;91.27;97208.16;104805;1327;22263;-85
2023/01/05 11:17:27;;;;;;;6.80;4.90;;;;;;;8.41;90.15;97202.69;104943;1327;22142;-84
2023/01/05 11:19:56;;;;;;;7.80;6.50;;;;;;;8.42;89.58;97195.02;105442;1318;22258;-84
2023/01/05 11:22:43;;;;;;;9.40;6.20;;;;;;;8.44;89.93;97196.50;104874;1327;22946;-84
2023/01/05 11:25:25;;;;;;;7.00;5.50;;;;;;;8.49;89.47;97196.77;104905;1326;22235;-84
2023/01/05 11:28:08;;;;;;;7.70;6.00;;;;;;;8.50;89.48;97199.32;104943;1324;23439;-84
2023/01/05 11:31:03;;;;;;;8.30;5.50;;;;;;;8.50;89.01;97197.55;104862;1327;22854;-85
2023/01/05 11:33:38;;;;;;;8.30;5.40;;;;;;;8.52;88.94;97200.62;104854;1327;22173;-83
2023/01/05 11:36:06;;;;;;;8.90;5.60;;;;;;;8.56;87.82;97203.70;104873;1321;22214;-83
2023/01/05 11:38:34;;;;;;;10.40;7.30;;;;;;;8.59;87.22;97199.39;104929;1327;22240;-83
2023/01/05 11:41:03;;;;;;;8.70;5.70;;;;;;;8.64;86.06;97214.44;104880;1327;22735;-83
2023/01/05 11:43:32;;;;;;;9.30;5.20;;;;;;;8.63;86.39;97207.58;105419;1305;22178;-84
2023/01/05 11:46:03;;;;;;;10.10;7.30;;;;;;;8.60;86.49;97205.05;105298;1319;22770;-83
2023/01/05 11:48:34;;;;;;;8.90;6.00;;;;;;;8.61;86.44;97205.16;105410;1319;22259;-84
2023/01/05 11:51:02;;;;;;;10.30;6.90;;;;;;;8.62;86.04;97209.20;104862;1326;22326;-84
2023/01/05 11:53:30;;;;;;;9.30;7.60;;;;;;;8.58;86.30;97203.08;104745;1326;22250;-83
2023/01/05 11:56:18;;;;;;;10.80;7.70;;;;;;;8.55;86.99;97201.14;105428;1320;22204;-83
2023/01/05 11:58:49;;;;;;;11.70;7.60;;;;;;;8.53;87.53;97202.52;105206;1320;22426;-84
2023/01/05 12:01:20;;;;;;;10.60;7.70;;;;;;;8.49;87.70;97207.61;104995;1314;22660;-83
2023/01/05 12:04:03;;;;;;;12.70;8.90;;;;;;;8.43;88.25;97210.70;104902;1326;22962;-84
2023/01/05 12:07:05;;;;;;;12.10;9.80;;;;;;;8.34;88.84;97198.02;104951;1327;22204;-84
2023/01/05 12:09:36;;;;;;;11.80;9.00;;;;;;;8.30;89.27;97198.69;105429;1318;22164;-84
2023/01/05 12:12:22;;;;;;;12.60;8.70;;;;;;;8.27;89.82;97196.18;104865;1319;22185;-84
2023/01/05 12:15:08;;;;;;;15.70;9.20;;;;;;;8.20;90.52;97192.10;104922;1327;22093;-84
2023/01/05 12:17:55;;;;;;;18.30;10.20;;;;;;;8.16;90.78;97190.67;104895;1327;22333;-84
2023/01/05 12:20:42;;;;;;;14.40;10.40;;;;;;;8.11;91.23;97186.91;104874;1319;22191;-84
2023/01/05 12:23:31;;;;;;;10.30;8.70;;;;;;;8.10;91.80;97199.20;104933;1305;22259;-87
2023/01/05 12:26:26;;;;;;;10.60;7.60;;;;;;;8.10;91.90;97197.50;104882;1324;22207;-85